sensor_id;sensor_type;location;lat;lon;timestamp;temperature;humidity
31307;DHT22;17935;51.120;13.132;2024-01-30T00:01:46;1.40;99.90
31307;DHT22;17935;51.120;13.132;2024-01-30T00:04:17;1.40;99.90
31307;DHT22;17935;51.120;13.132;2024-01-30T00:06:52;1.30;99.90
31307;DHT22;17935;51.120;13.132;2024-01-30T00:09:26;1.40;99.90
31307;DHT22;17935;51.120;13.132;2024-01-30T00:11:59;1.40;99.90
31307;DHT22;17935;51.120;13.132;2024-01-30T00:14:34;1.40;99.90
31307;DHT22;17935;51.120;13.132;2024-01-30T00:17:14;1.30;99.90
31307;DHT22;17935;51.120;13.132;2024-01-30T00:19:53;1.30;99.90
31307;DHT22;17935;51.120;13.132;2024-01-30T00:22:24;1.40;99.90
31307;DHT22;17935;51.120;13.132;2024-01-30T00:25:02;1.50;99.90
31307;DHT22;17935;51.120;13.132;2024-01-30T00:27:28;1.50;99.90
31307;DHT22;17935;51.120;13.132;2024-01-30T00:29:59;1.40;99.90
31307;DHT22;17935;51.120;13.132;2024-01-30T00:35:03;1.20;99.90
31307;DHT22;17935;51.120;13.132;2024-01-30T00:37:32;1.10;99.90
31307;DHT22;17935;51.120;13.132;2024-01-30T00:40:17;1.00;99.90
31307;DHT22;17935;51.120;13.132;2024-01-30T00:42:43;0.90;99.90
31307;DHT22;17935;51.120;13.132;2024-01-30T00:48:13;0.80;99.90
31307;DHT22;17935;51.120;13.132;2024-01-30T00:50:44;0.80;99.90
31307;DHT22;17935;51.120;13.132;2024-01-30T00:53:19;0.80;99.90
31307;DHT22;17935;51.120;13.132;2024-01-30T00:58:29;0.70;99.90
31307;DHT22;17935;51.120;13.132;2024-01-30T01:03:46;0.60;99.90
31307;DHT22;17935;51.120;13.132;2024-01-30T01:06:14;0.70;99.90
31307;DHT22;17935;51.120;13.132;2024-01-30T01:08:45;0.60;99.90
31307;DHT22;17935;51.120;13.132;2024-01-30T01:11:40;0.60;99.90
31307;DHT22;17935;51.120;13.132;2024-01-30T01:14:18;0.60;99.90
31307;DHT22;17935;51.120;13.132;2024-01-30T01:16:44;0.60;99.90
31307;DHT22;17935;51.120;13.132;2024-01-30T01:19:12;0.60;99.90
31307;DHT22;17935;51.120;13.132;2024-01-30T01:21:45;0.70;99.90
31307;DHT22;17935;51.120;13.132;2024-01-30T01:24:23;0.70;99.90
31307;DHT22;17935;51.120;13.132;2024-01-30T01:26:49;0.70;99.90
31307;DHT22;17935;51.120;13.132;2024-01-30T01:29:17;0.80;99.90
31307;DHT22;17935;51.120;13.132;2024-01-30T01:31:47;0.90;99.90
31307;DHT22;17935;51.120;13.132;2024-01-30T01:34:18;1.00;99.90
31307;DHT22;17935;51.120;13.132;2024-01-30T01:36:46;1.00;99.90
31307;DHT22;17935;51.120;13.132;2024-01-30T01:39:19;1.00;99.90
31307;DHT22;17935;51.120;13.132;2024-01-30T01:41:54;1.00;99.90
31307;DHT22;17935;51.120;13.132;2024-01-30T01:44:29;0.90;99.90
31307;DHT22;17935;51.120;13.132;2024-01-30T01:47:01;0.90;99.90
31307;DHT22;17935;51.120;13.132;2024-01-30T01:49:29;0.90;99.90
31307;DHT22;17935;51.120;13.132;2024-01-30T01:51:59;0.90;99.90
31307;DHT22;17935;51.120;13.132;2024-01-30T01:54:28;0.80;99.90
31307;DHT22;17935;51.120;13.132;2024-01-30T01:57:06;0.70;99.90
31307;DHT22;17935;51.120;13.132;2024-01-30T01:59:38;0.60;99.90
31307;DHT22;17935;51.120;13.132;2024-01-30T02:02:14;0.60;99.90
31307;DHT22;17935;51.120;13.132;2024-01-30T02:04:48;0.60;99.90
31307;DHT22;17935;51.120;13.132;2024-01-30T02:07:32;0.70;99.90
31307;DHT22;17935;51.120;13.132;2024-01-30T02:10:05;0.80;99.90
31307;DHT22;17935;51.120;13.132;2024-01-30T02:12:39;0.90;99.90
31307;DHT22;17935;51.120;13.132;2024-01-30T02:15:14;1.00;99.90
31307;DHT22;17935;51.120;13.132;2024-01-30T02:17:50;1.00;99.90
31307;DHT22;17935;51.120;13.132;2024-01-30T02:20:15;1.00;99.90
31307;DHT22;17935;51.120;13.132;2024-01-30T02:25:20;1.20;99.90
31307;DHT22;17935;51.120;13.132;2024-01-30T02:27:48;1.30;99.90
31307;DHT22;17935;51.120;13.132;2024-01-30T02:30:32;1.30;99.90
31307;DHT22;17935;51.120;13.132;2024-01-30T02:33:00;1.20;99.90
31307;DHT22;17935;51.120;13.132;2024-01-30T02:35:31;1.20;99.90
31307;DHT22;17935;51.120;13.132;2024-01-30T02:37:59;1.10;99.90
31307;DHT22;17935;51.120;13.132;2024-01-30T02:40:31;1.10;99.90
31307;DHT22;17935;51.120;13.132;2024-01-30T02:43:06;1.00;99.90
31307;DHT22;17935;51.120;13.132;2024-01-30T02:45:34;0.90;99.90
31307;DHT22;17935;51.120;13.132;2024-01-30T02:48:12;1.10;99.90
31307;DHT22;17935;51.120;13.132;2024-01-30T02:50:37;1.20;99.90
31307;DHT22;17935;51.120;13.132;2024-01-30T02:53:14;1.20;99.90
31307;DHT22;17935;51.120;13.132;2024-01-30T02:55:45;1.10;99.90
31307;DHT22;17935;51.120;13.132;2024-01-30T02:58:27;1.00;99.90
31307;DHT22;17935;51.120;13.132;2024-01-30T03:00:55;1.10;99.90
31307;DHT22;17935;51.120;13.132;2024-01-30T03:03:47;1.10;99.90
31307;DHT22;17935;51.120;13.132;2024-01-30T03:06:15;1.10;99.90
31307;DHT22;17935;51.120;13.132;2024-01-30T03:08:51;1.10;99.90
31307;DHT22;17935;51.120;13.132;2024-01-30T03:11:26;1.00;99.90
31307;DHT22;17935;51.120;13.132;2024-01-30T03:14:03;1.00;99.90
31307;DHT22;17935;51.120;13.132;2024-01-30T03:16:32;0.90;99.90
31307;DHT22;17935;51.120;13.132;2024-01-30T03:18:57;0.90;99.90
31307;DHT22;17935;51.120;13.132;2024-01-30T03:21:42;0.80;99.90
31307;DHT22;17935;51.120;13.132;2024-01-30T03:24:17;0.80;99.90
31307;DHT22;17935;51.120;13.132;2024-01-30T03:26:43;0.90;99.90
31307;DHT22;17935;51.120;13.132;2024-01-30T03:29:16;1.10;99.90
31307;DHT22;17935;51.120;13.132;2024-01-30T03:32:18;1.20;99.90
31307;DHT22;17935;51.120;13.132;2024-01-30T03:34:47;1.30;99.90
31307;DHT22;17935;51.120;13.132;2024-01-30T03:37:17;1.20;99.90
31307;DHT22;17935;51.120;13.132;2024-01-30T03:39:53;1.10;99.90
31307;DHT22;17935;51.120;13.132;2024-01-30T03:42:24;1.10;99.90
31307;DHT22;17935;51.120;13.132;2024-01-30T03:44:52;1.00;99.90
31307;DHT22;17935;51.120;13.132;2024-01-30T03:47:20;1.00;99.90
31307;DHT22;17935;51.120;13.132;2024-01-30T03:52:37;0.90;99.90
31307;DHT22;17935;51.120;13.132;2024-01-30T03:55:09;0.90;99.90
31307;DHT22;17935;51.120;13.132;2024-01-30T03:57:46;0.70;99.90
31307;DHT22;17935;51.120;13.132;2024-01-30T04:00:16;0.60;99.90
31307;DHT22;17935;51.120;13.132;2024-01-30T04:02:42;0.50;99.90
31307;DHT22;17935;51.120;13.132;2024-01-30T04:05:17;0.50;99.90
31307;DHT22;17935;51.120;13.132;2024-01-30T04:07:43;0.40;99.90
31307;DHT22;17935;51.120;13.132;2024-01-30T04:10:18;0.40;99.90
31307;DHT22;17935;51.120;13.132;2024-01-30T04:12:55;0.40;99.90
31307;DHT22;17935;51.120;13.132;2024-01-30T04:15:25;0.30;99.90
31307;DHT22;17935;51.120;13.132;2024-01-30T04:18:13;0.20;99.90
31307;DHT22;17935;51.120;13.132;2024-01-30T04:23:42;0.10;99.90
31307;DHT22;17935;51.120;13.132;2024-01-30T04:26:20;0.10;99.90
31307;DHT22;17935;51.120;13.132;2024-01-30T04:28:48;0.10;99.90
31307;DHT22;17935;51.120;13.132;2024-01-30T04:31:17;0.00;99.90
31307;DHT22;17935;51.120;13.132;2024-01-30T04:33:51;-0.10;99.90
31307;DHT22;17935;51.120;13.132;2024-01-30T04:36:32;-0.20;99.90
31307;DHT22;17935;51.120;13.132;2024-01-30T04:39:03;-0.20;99.90
31307;DHT22;17935;51.120;13.132;2024-01-30T04:41:52;-0.20;99.90
31307;DHT22;17935;51.120;13.132;2024-01-30T04:44:28;-0.20;99.90
31307;DHT22;17935;51.120;13.132;2024-01-30T04:46:59;-0.20;99.90
31307;DHT22;17935;51.120;13.132;2024-01-30T04:49:28;-0.20;99.90
31307;DHT22;17935;51.120;13.132;2024-01-30T04:52:03;-0.30;99.90
31307;DHT22;17935;51.120;13.132;2024-01-30T04:54:32;-0.30;99.90
31307;DHT22;17935;51.120;13.132;2024-01-30T04:57:03;-0.30;99.90
31307;DHT22;17935;51.120;13.132;2024-01-30T04:59:42;-0.40;99.90
31307;DHT22;17935;51.120;13.132;2024-01-30T05:02:08;-0.60;99.90
31307;DHT22;17935;51.120;13.132;2024-01-30T05:04:34;-0.60;99.90
31307;DHT22;17935;51.120;13.132;2024-01-30T05:07:03;-0.70;99.90
31307;DHT22;17935;51.120;13.132;2024-01-30T05:09:31;-0.80;99.90
31307;DHT22;17935;51.120;13.132;2024-01-30T05:12:06;-0.70;99.90
31307;DHT22;17935;51.120;13.132;2024-01-30T05:14:43;-0.80;99.90
31307;DHT22;17935;51.120;13.132;2024-01-30T05:17:08;-0.70;99.90
31307;DHT22;17935;51.120;13.132;2024-01-30T05:19:38;-0.60;99.90
31307;DHT22;17935;51.120;13.132;2024-01-30T05:22:04;-0.40;99.90
31307;DHT22;17935;51.120;13.132;2024-01-30T05:24:30;-0.20;99.90
31307;DHT22;17935;51.120;13.132;2024-01-30T05:26:55;-0.20;99.90
31307;DHT22;17935;51.120;13.132;2024-01-30T05:29:21;-0.10;99.90
31307;DHT22;17935;51.120;13.132;2024-01-30T05:31:46;0.20;99.90
31307;DHT22;17935;51.120;13.132;2024-01-30T05:34:12;0.30;99.90
31307;DHT22;17935;51.120;13.132;2024-01-30T05:36:40;0.10;99.90
31307;DHT22;17935;51.120;13.132;2024-01-30T05:39:05;0.00;99.90
31307;DHT22;17935;51.120;13.132;2024-01-30T05:41:31;0.00;99.90
31307;DHT22;17935;51.120;13.132;2024-01-30T05:43:57;-0.10;99.90
31307;DHT22;17935;51.120;13.132;2024-01-30T05:46:24;0.00;99.90
31307;DHT22;17935;51.120;13.132;2024-01-30T05:48:50;0.10;99.90
31307;DHT22;17935;51.120;13.132;2024-01-30T05:51:18;0.30;99.90
31307;DHT22;17935;51.120;13.132;2024-01-30T05:53:44;0.30;99.90
31307;DHT22;17935;51.120;13.132;2024-01-30T05:56:12;0.40;99.90
31307;DHT22;17935;51.120;13.132;2024-01-30T05:58:41;0.40;99.90
31307;DHT22;17935;51.120;13.132;2024-01-30T06:01:09;0.50;99.90
31307;DHT22;17935;51.120;13.132;2024-01-30T06:03:35;0.40;99.90
31307;DHT22;17935;51.120;13.132;2024-01-30T06:06:07;0.50;99.90
31307;DHT22;17935;51.120;13.132;2024-01-30T06:08:33;0.50;99.90
31307;DHT22;17935;51.120;13.132;2024-01-30T06:11:01;0.50;99.90
31307;DHT22;17935;51.120;13.132;2024-01-30T06:13:27;0.50;99.90
31307;DHT22;17935;51.120;13.132;2024-01-30T06:15:57;0.60;99.90
31307;DHT22;17935;51.120;13.132;2024-01-30T06:18:26;0.70;99.90
31307;DHT22;17935;51.120;13.132;2024-01-30T06:20:54;0.70;99.90
31307;DHT22;17935;51.120;13.132;2024-01-30T06:23:22;0.70;99.90
31307;DHT22;17935;51.120;13.132;2024-01-30T06:25:50;0.70;99.90
31307;DHT22;17935;51.120;13.132;2024-01-30T06:28:16;0.80;99.90
31307;DHT22;17935;51.120;13.132;2024-01-30T06:30:44;0.80;99.90
31307;DHT22;17935;51.120;13.132;2024-01-30T06:33:12;0.80;99.90
31307;DHT22;17935;51.120;13.132;2024-01-30T06:35:39;0.80;99.90
31307;DHT22;17935;51.120;13.132;2024-01-30T06:38:05;0.90;99.90
31307;DHT22;17935;51.120;13.132;2024-01-30T06:40:31;1.10;99.90
31307;DHT22;17935;51.120;13.132;2024-01-30T06:42:57;1.20;99.90
31307;DHT22;17935;51.120;13.132;2024-01-30T06:45:25;1.20;99.90
31307;DHT22;17935;51.120;13.132;2024-01-30T06:47:51;1.30;99.90
31307;DHT22;17935;51.120;13.132;2024-01-30T06:50:24;1.30;99.90
31307;DHT22;17935;51.120;13.132;2024-01-30T06:52:53;1.40;99.90
31307;DHT22;17935;51.120;13.132;2024-01-30T06:55:54;1.50;99.90
31307;DHT22;17935;51.120;13.132;2024-01-30T06:58:10;1.60;99.90
31307;DHT22;17935;51.120;13.132;2024-01-30T07:00:36;1.80;99.90
31307;DHT22;17935;51.120;13.132;2024-01-30T07:03:05;2.00;99.90
31307;DHT22;17935;51.120;13.132;2024-01-30T07:05:34;2.10;99.90
31307;DHT22;17935;51.120;13.132;2024-01-30T07:08:07;2.10;99.90
31307;DHT22;17935;51.120;13.132;2024-01-30T07:10:40;1.90;99.90
31307;DHT22;17935;51.120;13.132;2024-01-30T07:13:05;2.00;99.90
31307;DHT22;17935;51.120;13.132;2024-01-30T07:15:31;2.10;99.90
31307;DHT22;17935;51.120;13.132;2024-01-30T07:18:02;2.20;99.90
31307;DHT22;17935;51.120;13.132;2024-01-30T07:20:31;2.40;99.90
31307;DHT22;17935;51.120;13.132;2024-01-30T07:22:57;2.50;99.90
31307;DHT22;17935;51.120;13.132;2024-01-30T07:25:29;2.50;99.90
31307;DHT22;17935;51.120;13.132;2024-01-30T07:27:55;2.70;99.90
31307;DHT22;17935;51.120;13.132;2024-01-30T07:30:21;2.90;99.90
31307;DHT22;17935;51.120;13.132;2024-01-30T07:33:12;3.20;99.90
31307;DHT22;17935;51.120;13.132;2024-01-30T07:35:40;3.60;99.90
31307;DHT22;17935;51.120;13.132;2024-01-30T07:38:06;4.10;99.90
31307;DHT22;17935;51.120;13.132;2024-01-30T07:40:35;4.80;99.90
31307;DHT22;17935;51.120;13.132;2024-01-30T07:43:11;5.60;99.90
31307;DHT22;17935;51.120;13.132;2024-01-30T07:45:48;6.40;96.70
31307;DHT22;17935;51.120;13.132;2024-01-30T07:48:19;7.00;92.00
31307;DHT22;17935;51.120;13.132;2024-01-30T07:50:44;7.10;90.40
31307;DHT22;17935;51.120;13.132;2024-01-30T07:53:10;7.60;85.40
31307;DHT22;17935;51.120;13.132;2024-01-30T07:55:36;8.20;81.00
31307;DHT22;17935;51.120;13.132;2024-01-30T07:58:01;8.70;77.30
31307;DHT22;17935;51.120;13.132;2024-01-30T08:00:30;9.10;74.40
31307;DHT22;17935;51.120;13.132;2024-01-30T08:02:57;9.20;74.90
31307;DHT22;17935;51.120;13.132;2024-01-30T08:05:25;9.10;73.60
31307;DHT22;17935;51.120;13.132;2024-01-30T08:07:54;8.60;73.10
31307;DHT22;17935;51.120;13.132;2024-01-30T08:10:22;8.20;73.90
31307;DHT22;17935;51.120;13.132;2024-01-30T08:12:47;8.00;74.60
31307;DHT22;17935;51.120;13.132;2024-01-30T08:15:16;7.70;75.00
31307;DHT22;17935;51.120;13.132;2024-01-30T08:17:51;7.70;75.00
31307;DHT22;17935;51.120;13.132;2024-01-30T08:20:24;7.60;75.00
31307;DHT22;17935;51.120;13.132;2024-01-30T08:22:53;7.80;74.90
31307;DHT22;17935;51.120;13.132;2024-01-30T08:25:21;7.80;73.80
31307;DHT22;17935;51.120;13.132;2024-01-30T08:27:47;8.10;73.80
31307;DHT22;17935;51.120;13.132;2024-01-30T08:30:18;8.50;72.60
31307;DHT22;17935;51.120;13.132;2024-01-30T08:32:47;8.90;71.80
31307;DHT22;17935;51.120;13.132;2024-01-30T08:35:16;9.30;70.60
31307;DHT22;17935;51.120;13.132;2024-01-30T08:37:46;10.00;70.50
31307;DHT22;17935;51.120;13.132;2024-01-30T08:40:12;11.00;68.00
31307;DHT22;17935;51.120;13.132;2024-01-30T08:42:48;12.00;66.30
31307;DHT22;17935;51.120;13.132;2024-01-30T08:45:21;12.80;63.60
31307;DHT22;17935;51.120;13.132;2024-01-30T08:48:25;13.50;59.50
31307;DHT22;17935;51.120;13.132;2024-01-30T08:51:01;13.80;58.70
31307;DHT22;17935;51.120;13.132;2024-01-30T08:53:33;14.40;57.60
31307;DHT22;17935;51.120;13.132;2024-01-30T08:55:59;14.80;56.30
31307;DHT22;17935;51.120;13.132;2024-01-30T08:58:39;15.20;54.90
31307;DHT22;17935;51.120;13.132;2024-01-30T09:01:07;15.40;54.00
31307;DHT22;17935;51.120;13.132;2024-01-30T09:03:39;15.20;53.30
31307;DHT22;17935;51.120;13.132;2024-01-30T09:06:12;15.00;53.60
31307;DHT22;17935;51.120;13.132;2024-01-30T09:08:49;14.80;54.00
31307;DHT22;17935;51.120;13.132;2024-01-30T09:11:17;15.10;53.60
31307;DHT22;17935;51.120;13.132;2024-01-30T09:14:08;15.10;53.30
31307;DHT22;17935;51.120;13.132;2024-01-30T09:16:37;15.00;53.40
31307;DHT22;17935;51.120;13.132;2024-01-30T09:19:03;15.30;53.10
31307;DHT22;17935;51.120;13.132;2024-01-30T09:21:34;15.50;52.50
31307;DHT22;17935;51.120;13.132;2024-01-30T09:24:03;15.50;52.00
31307;DHT22;17935;51.120;13.132;2024-01-30T09:26:44;15.40;52.60
31307;DHT22;17935;51.120;13.132;2024-01-30T09:29:27;15.60;52.10
31307;DHT22;17935;51.120;13.132;2024-01-30T09:31:54;15.60;52.40
31307;DHT22;17935;51.120;13.132;2024-01-30T09:34:22;16.10;51.40
31307;DHT22;17935;51.120;13.132;2024-01-30T09:36:48;16.40;51.40
31307;DHT22;17935;51.120;13.132;2024-01-30T09:39:19;16.80;50.60
31307;DHT22;17935;51.120;13.132;2024-01-30T09:42:21;17.00;49.80
31307;DHT22;17935;51.120;13.132;2024-01-30T09:44:51;17.30;49.10
31307;DHT22;17935;51.120;13.132;2024-01-30T09:47:19;17.30;49.40
31307;DHT22;17935;51.120;13.132;2024-01-30T09:49:48;17.60;48.80
31307;DHT22;17935;51.120;13.132;2024-01-30T09:52:14;17.60;48.70
31307;DHT22;17935;51.120;13.132;2024-01-30T09:54:47;17.60;48.70
31307;DHT22;17935;51.120;13.132;2024-01-30T09:57:17;17.70;48.60
31307;DHT22;17935;51.120;13.132;2024-01-30T09:59:43;17.50;48.60
31307;DHT22;17935;51.120;13.132;2024-01-30T10:02:22;17.50;48.80
31307;DHT22;17935;51.120;13.132;2024-01-30T10:04:49;17.50;49.50
31307;DHT22;17935;51.120;13.132;2024-01-30T10:07:17;17.30;48.80
31307;DHT22;17935;51.120;13.132;2024-01-30T10:09:43;17.10;49.30
31307;DHT22;17935;51.120;13.132;2024-01-30T10:12:09;16.80;49.40
31307;DHT22;17935;51.120;13.132;2024-01-30T10:14:46;16.40;50.00
31307;DHT22;17935;51.120;13.132;2024-01-30T10:17:14;16.10;50.60
31307;DHT22;17935;51.120;13.132;2024-01-30T10:19:45;15.80;51.20
31307;DHT22;17935;51.120;13.132;2024-01-30T10:22:17;15.60;51.10
31307;DHT22;17935;51.120;13.132;2024-01-30T10:24:43;15.50;51.20
31307;DHT22;17935;51.120;13.132;2024-01-30T10:27:10;15.40;50.80
31307;DHT22;17935;51.120;13.132;2024-01-30T10:29:48;15.30;51.00
31307;DHT22;17935;51.120;13.132;2024-01-30T10:32:23;15.50;50.40
31307;DHT22;17935;51.120;13.132;2024-01-30T10:34:52;15.40;50.50
31307;DHT22;17935;51.120;13.132;2024-01-30T10:37:28;15.40;50.50
31307;DHT22;17935;51.120;13.132;2024-01-30T10:39:59;15.50;51.70
31307;DHT22;17935;51.120;13.132;2024-01-30T10:42:43;15.80;50.60
31307;DHT22;17935;51.120;13.132;2024-01-30T10:45:13;15.70;50.60
31307;DHT22;17935;51.120;13.132;2024-01-30T10:47:48;15.50;50.80
31307;DHT22;17935;51.120;13.132;2024-01-30T10:50:17;15.30;51.40
31307;DHT22;17935;51.120;13.132;2024-01-30T10:52:43;15.10;51.20
31307;DHT22;17935;51.120;13.132;2024-01-30T10:55:15;15.00;51.70
31307;DHT22;17935;51.120;13.132;2024-01-30T10:57:41;14.80;51.60
31307;DHT22;17935;51.120;13.132;2024-01-30T11:00:14;14.70;52.10
31307;DHT22;17935;51.120;13.132;2024-01-30T11:02:44;14.80;52.00
31307;DHT22;17935;51.120;13.132;2024-01-30T11:05:23;14.90;52.30
31307;DHT22;17935;51.120;13.132;2024-01-30T11:07:50;14.90;51.80
31307;DHT22;17935;51.120;13.132;2024-01-30T11:10:16;14.80;51.90
31307;DHT22;17935;51.120;13.132;2024-01-30T11:12:45;14.70;52.10
31307;DHT22;17935;51.120;13.132;2024-01-30T11:15:20;14.70;52.30
31307;DHT22;17935;51.120;13.132;2024-01-30T11:20:25;14.80;52.60
31307;DHT22;17935;51.120;13.132;2024-01-30T11:22:59;14.80;52.90
31307;DHT22;17935;51.120;13.132;2024-01-30T11:25:34;15.10;52.80
31307;DHT22;17935;51.120;13.132;2024-01-30T11:28:04;15.30;52.50
31307;DHT22;17935;51.120;13.132;2024-01-30T11:30:33;15.50;52.80
31307;DHT22;17935;51.120;13.132;2024-01-30T11:33:08;15.60;52.80
31307;DHT22;17935;51.120;13.132;2024-01-30T11:35:38;15.90;53.00
31307;DHT22;17935;51.120;13.132;2024-01-30T11:38:08;16.00;52.20
31307;DHT22;17935;51.120;13.132;2024-01-30T11:40:36;16.10;52.20
31307;DHT22;17935;51.120;13.132;2024-01-30T11:43:06;16.00;51.90
31307;DHT22;17935;51.120;13.132;2024-01-30T11:45:36;15.90;52.20
31307;DHT22;17935;51.120;13.132;2024-01-30T11:48:05;16.00;52.50
31307;DHT22;17935;51.120;13.132;2024-01-30T11:50:39;16.00;52.50
31307;DHT22;17935;51.120;13.132;2024-01-30T11:53:13;16.00;52.70
31307;DHT22;17935;51.120;13.132;2024-01-30T11:55:39;16.10;53.10
31307;DHT22;17935;51.120;13.132;2024-01-30T11:58:05;16.10;53.00
31307;DHT22;17935;51.120;13.132;2024-01-30T12:00:38;16.00;53.20
31307;DHT22;17935;51.120;13.132;2024-01-30T12:03:07;15.90;53.30
31307;DHT22;17935;51.120;13.132;2024-01-30T12:05:33;15.90;53.50
31307;DHT22;17935;51.120;13.132;2024-01-30T12:08:01;15.90;53.70
31307;DHT22;17935;51.120;13.132;2024-01-30T12:10:27;16.00;54.20
31307;DHT22;17935;51.120;13.132;2024-01-30T12:12:56;16.00;54.20
31307;DHT22;17935;51.120;13.132;2024-01-30T12:15:28;16.00;54.30
31307;DHT22;17935;51.120;13.132;2024-01-30T12:18:06;15.90;54.20
31307;DHT22;17935;51.120;13.132;2024-01-30T12:20:33;15.80;54.70
31307;DHT22;17935;51.120;13.132;2024-01-30T12:22:58;15.70;55.00
31307;DHT22;17935;51.120;13.132;2024-01-30T12:25:24;15.60;55.20
31307;DHT22;17935;51.120;13.132;2024-01-30T12:27:50;15.50;55.90
31307;DHT22;17935;51.120;13.132;2024-01-30T12:30:22;15.50;56.30
31307;DHT22;17935;51.120;13.132;2024-01-30T12:35:31;15.50;57.00
31307;DHT22;17935;51.120;13.132;2024-01-30T12:38:07;15.50;57.30
31307;DHT22;17935;51.120;13.132;2024-01-30T12:40:37;15.60;57.80
31307;DHT22;17935;51.120;13.132;2024-01-30T12:43:06;15.50;58.60
31307;DHT22;17935;51.120;13.132;2024-01-30T12:45:43;15.50;59.30
31307;DHT22;17935;51.120;13.132;2024-01-30T12:48:11;15.70;60.00
31307;DHT22;17935;51.120;13.132;2024-01-30T12:50:36;15.80;59.90
31307;DHT22;17935;51.120;13.132;2024-01-30T12:53:02;16.00;60.10
31307;DHT22;17935;51.120;13.132;2024-01-30T12:55:35;16.00;60.60
31307;DHT22;17935;51.120;13.132;2024-01-30T12:58:01;15.90;60.00
31307;DHT22;17935;51.120;13.132;2024-01-30T13:00:27;15.90;60.30
31307;DHT22;17935;51.120;13.132;2024-01-30T13:02:55;15.90;60.60
31307;DHT22;17935;51.120;13.132;2024-01-30T13:05:21;16.00;60.60
31307;DHT22;17935;51.120;13.132;2024-01-30T13:07:55;16.00;60.60
31307;DHT22;17935;51.120;13.132;2024-01-30T13:10:25;15.90;60.70
31307;DHT22;17935;51.120;13.132;2024-01-30T13:12:57;15.80;61.00
31307;DHT22;17935;51.120;13.132;2024-01-30T13:15:25;15.50;61.70
31307;DHT22;17935;51.120;13.132;2024-01-30T13:17:50;15.30;62.20
31307;DHT22;17935;51.120;13.132;2024-01-30T13:20:18;15.20;62.80
31307;DHT22;17935;51.120;13.132;2024-01-30T13:22:46;15.10;63.30
31307;DHT22;17935;51.120;13.132;2024-01-30T13:25:15;15.00;63.60
31307;DHT22;17935;51.120;13.132;2024-01-30T13:27:44;14.90;63.70
31307;DHT22;17935;51.120;13.132;2024-01-30T13:30:10;14.80;64.10
31307;DHT22;17935;51.120;13.132;2024-01-30T13:32:36;14.70;64.20
31307;DHT22;17935;51.120;13.132;2024-01-30T13:35:02;14.70;64.60
31307;DHT22;17935;51.120;13.132;2024-01-30T13:37:28;14.60;64.90
31307;DHT22;17935;51.120;13.132;2024-01-30T13:39:59;14.60;65.20
31307;DHT22;17935;51.120;13.132;2024-01-30T13:42:25;14.50;65.20
31307;DHT22;17935;51.120;13.132;2024-01-30T13:44:56;14.50;65.40
31307;DHT22;17935;51.120;13.132;2024-01-30T13:47:24;14.50;65.60
31307;DHT22;17935;51.120;13.132;2024-01-30T13:49:53;14.50;65.80
31307;DHT22;17935;51.120;13.132;2024-01-30T13:52:19;14.50;65.90
31307;DHT22;17935;51.120;13.132;2024-01-30T13:54:44;14.30;66.10
31307;DHT22;17935;51.120;13.132;2024-01-30T13:57:10;14.10;66.60
31307;DHT22;17935;51.120;13.132;2024-01-30T13:59:38;14.00;67.00
31307;DHT22;17935;51.120;13.132;2024-01-30T14:02:07;14.00;67.30
31307;DHT22;17935;51.120;13.132;2024-01-30T14:04:33;13.90;67.60
31307;DHT22;17935;51.120;13.132;2024-01-30T14:06:59;13.90;67.80
31307;DHT22;17935;51.120;13.132;2024-01-30T14:09:44;13.70;68.00
31307;DHT22;17935;51.120;13.132;2024-01-30T14:12:12;13.60;68.60
31307;DHT22;17935;51.120;13.132;2024-01-30T14:14:38;13.40;68.90
31307;DHT22;17935;51.120;13.132;2024-01-30T14:17:06;13.30;69.20
31307;DHT22;17935;51.120;13.132;2024-01-30T14:19:35;13.10;69.60
31307;DHT22;17935;51.120;13.132;2024-01-30T14:22:09;13.00;70.10
31307;DHT22;17935;51.120;13.132;2024-01-30T14:24:37;13.00;70.40
31307;DHT22;17935;51.120;13.132;2024-01-30T14:27:10;12.90;70.50
31307;DHT22;17935;51.120;13.132;2024-01-30T14:29:36;12.80;70.60
31307;DHT22;17935;51.120;13.132;2024-01-30T14:32:04;12.80;70.70
31307;DHT22;17935;51.120;13.132;2024-01-30T14:34:32;12.80;71.00
31307;DHT22;17935;51.120;13.132;2024-01-30T14:36:58;12.80;71.20
31307;DHT22;17935;51.120;13.132;2024-01-30T14:39:26;12.70;71.30
31307;DHT22;17935;51.120;13.132;2024-01-30T14:42:03;12.70;71.60
31307;DHT22;17935;51.120;13.132;2024-01-30T14:44:32;12.70;71.80
31307;DHT22;17935;51.120;13.132;2024-01-30T14:46:57;12.60;72.00
31307;DHT22;17935;51.120;13.132;2024-01-30T14:49:23;12.60;72.40
31307;DHT22;17935;51.120;13.132;2024-01-30T14:51:57;12.60;72.80
31307;DHT22;17935;51.120;13.132;2024-01-30T14:54:24;12.50;73.00
31307;DHT22;17935;51.120;13.132;2024-01-30T14:56:56;12.50;73.30
31307;DHT22;17935;51.120;13.132;2024-01-30T14:59:29;12.40;73.20
31307;DHT22;17935;51.120;13.132;2024-01-30T15:01:57;12.30;73.30
31307;DHT22;17935;51.120;13.132;2024-01-30T15:04:25;12.30;73.80
31307;DHT22;17935;51.120;13.132;2024-01-30T15:06:54;12.20;74.10
31307;DHT22;17935;51.120;13.132;2024-01-30T15:09:20;12.10;74.70
31307;DHT22;17935;51.120;13.132;2024-01-30T15:11:47;12.00;74.80
31307;DHT22;17935;51.120;13.132;2024-01-30T15:14:19;11.80;75.10
31307;DHT22;17935;51.120;13.132;2024-01-30T15:17:13;11.70;75.70
31307;DHT22;17935;51.120;13.132;2024-01-30T15:19:39;11.50;76.30
31307;DHT22;17935;51.120;13.132;2024-01-30T15:22:10;11.40;76.80
31307;DHT22;17935;51.120;13.132;2024-01-30T15:24:44;11.20;77.20
31307;DHT22;17935;51.120;13.132;2024-01-30T15:27:15;11.10;78.00
31307;DHT22;17935;51.120;13.132;2024-01-30T15:29:43;10.90;78.20
31307;DHT22;17935;51.120;13.132;2024-01-30T15:32:47;10.80;78.90
31307;DHT22;17935;51.120;13.132;2024-01-30T15:35:17;10.70;79.00
31307;DHT22;17935;51.120;13.132;2024-01-30T15:37:49;10.70;79.20
31307;DHT22;17935;51.120;13.132;2024-01-30T15:40:20;10.60;79.40
31307;DHT22;17935;51.120;13.132;2024-01-30T15:42:46;10.60;79.50
31307;DHT22;17935;51.120;13.132;2024-01-30T15:45:12;10.50;79.70
31307;DHT22;17935;51.120;13.132;2024-01-30T15:47:40;10.40;80.00
31307;DHT22;17935;51.120;13.132;2024-01-30T15:50:11;10.40;80.20
31307;DHT22;17935;51.120;13.132;2024-01-30T15:52:43;10.40;80.40
31307;DHT22;17935;51.120;13.132;2024-01-30T15:55:11;10.30;81.30
31307;DHT22;17935;51.120;13.132;2024-01-30T15:57:39;10.30;81.00
31307;DHT22;17935;51.120;13.132;2024-01-30T16:00:10;10.20;81.30
31307;DHT22;17935;51.120;13.132;2024-01-30T16:02:38;10.20;81.70
31307;DHT22;17935;51.120;13.132;2024-01-30T16:05:10;10.10;82.10
31307;DHT22;17935;51.120;13.132;2024-01-30T16:07:42;10.00;82.50
31307;DHT22;17935;51.120;13.132;2024-01-30T16:10:13;9.90;83.00